createdAt,value
2023-03-24T00:02:51.550Z,54.77
2023-03-24T00:06:01.919Z,54.78
2023-03-24T00:09:06.564Z,54.77
2023-03-24T00:12:11.397Z,54.76
2023-03-24T00:15:19.124Z,54.80
2023-03-24T00:18:26.056Z,54.87
2023-03-24T00:21:30.580Z,55.01
2023-03-24T00:24:35.337Z,55.15
2023-03-24T00:27:40.070Z,55.32
2023-03-24T00:30:51.968Z,55.39
2023-03-24T00:33:56.703Z,55.45
2023-03-24T00:37:01.193Z,55.66
2023-03-24T00:40:08.292Z,55.66
2023-03-24T00:43:14.118Z,55.71
2023-03-24T00:46:28.952Z,55.69
2023-03-24T00:49:46.152Z,55.77
2023-03-24T00:52:50.767Z,55.90
2023-03-24T00:55:55.502Z,55.92
2023-03-24T00:59:02.665Z,56.29
2023-03-24T01:02:11.981Z,56.52
2023-03-24T01:05:17.739Z,56.64
2023-03-24T01:08:22.298Z,56.66
2023-03-24T01:11:28.470Z,56.57
2023-03-24T01:14:33.213Z,56.47
2023-03-24T01:17:37.775Z,56.56
2023-03-24T01:20:45.887Z,56.69
2023-03-24T01:23:50.553Z,56.91
2023-03-24T01:26:55.098Z,56.84
2023-03-24T01:30:01.894Z,56.93
2023-03-24T01:33:06.893Z,56.92
2023-03-24T01:36:11.800Z,56.92
2023-03-24T01:39:16.613Z,56.84
2023-03-24T01:42:22.101Z,56.93
2023-03-24T01:45:55.228Z,57.06
2023-03-24T01:49:01.798Z,57.00
2023-03-24T01:52:08.567Z,57.09
2023-03-24T01:55:18.729Z,57.25
2023-03-24T01:58:23.601Z,57.74
2023-03-24T02:01:30.866Z,58.29
2023-03-24T02:04:38.869Z,58.23
2023-03-24T02:07:48.200Z,58.11
2023-03-24T02:10:55.033Z,58.10
2023-03-24T02:13:59.938Z,58.07
2023-03-24T02:17:16.421Z,57.86
2023-03-24T02:20:41.585Z,57.77
2023-03-24T02:24:13.389Z,57.73
2023-03-24T02:27:30.304Z,57.69
2023-03-24T02:30:45.119Z,57.71
2023-03-24T02:34:04.813Z,57.91
2023-03-24T02:37:32.779Z,58.82
2023-03-24T02:40:38.896Z,59.15
2023-03-24T02:43:47.646Z,59.78
2023-03-24T02:46:55.297Z,60.27
2023-03-24T02:50:04.103Z,60.41
2023-03-24T02:53:11.113Z,60.43
2023-03-24T02:56:18.513Z,60.61
2023-03-24T02:59:27.701Z,60.86
2023-03-24T03:02:34.476Z,60.83
2023-03-24T03:05:43.458Z,60.54
2023-03-24T03:08:49.361Z,60.41
2023-03-24T03:11:55.922Z,60.49
2023-03-24T03:15:03.106Z,60.88
2023-03-24T03:18:11.131Z,61.53
2023-03-24T03:21:17.349Z,62.28
2023-03-24T03:24:27.382Z,66.01
2023-03-24T03:27:39.170Z,67.79
2023-03-24T03:30:47.737Z,67.05
2023-03-24T03:33:55.569Z,66.12
2023-03-24T03:37:05.109Z,64.97
2023-03-24T03:40:12.613Z,64.19
2023-03-24T03:43:17.663Z,63.33
2023-03-24T03:46:22.349Z,62.34
2023-03-24T03:49:27.105Z,61.60
2023-03-24T03:52:31.792Z,61.31
2023-03-24T03:55:36.645Z,61.18
2023-03-24T03:58:42.519Z,60.95
2023-03-24T04:01:48.951Z,60.47
2023-03-24T04:05:06.966Z,60.33
2023-03-24T04:08:16.028Z,59.31
2023-03-24T04:11:34.075Z,57.44
2023-03-24T04:14:44.993Z,57.07
2023-03-24T04:17:56.873Z,57.25
2023-03-24T04:21:08.915Z,59.51
2023-03-24T04:24:19.459Z,60.92
2023-03-24T04:27:28.406Z,60.57
2023-03-24T04:30:37.427Z,59.40
2023-03-24T04:33:45.644Z,59.09
2023-03-24T04:36:54.706Z,59.38
2023-03-24T04:40:00.357Z,59.30
2023-03-24T04:43:07.475Z,59.88
2023-03-24T04:46:12.531Z,60.56
2023-03-24T04:49:17.034Z,60.33
2023-03-24T04:52:21.565Z,60.18
2023-03-24T04:55:34.570Z,61.32
2023-03-24T04:58:39.114Z,61.77
2023-03-24T05:01:50.363Z,62.04
2023-03-24T05:04:55.377Z,62.58
2023-03-24T05:08:00.335Z,66.56
2023-03-24T05:11:04.874Z,69.12
2023-03-24T05:14:09.430Z,69.30
2023-03-24T05:17:14.034Z,68.13
2023-03-24T05:20:18.664Z,66.90
2023-03-24T05:23:23.195Z,65.31
2023-03-24T05:26:27.816Z,66.13
2023-03-24T05:29:32.372Z,66.12
2023-03-24T05:32:37.115Z,65.97
2023-03-24T05:35:41.735Z,65.78
2023-03-24T05:38:46.303Z,65.73
2023-03-24T05:41:50.969Z,65.70
2023-03-24T05:44:55.581Z,65.41
2023-03-24T05:48:00.142Z,65.61
2023-03-24T05:51:04.838Z,64.95
2023-03-24T05:54:09.467Z,64.22
2023-03-24T05:57:16.198Z,63.00
2023-03-24T06:00:23.406Z,62.20
2023-03-24T06:03:34.423Z,62.32
2023-03-24T06:06:41.112Z,62.31
2023-03-24T06:09:47.348Z,62.05
2023-03-24T06:12:52.197Z,61.17
2023-03-24T06:15:59.420Z,61.06
2023-03-24T06:19:07.012Z,60.75
2023-03-24T06:22:11.870Z,60.30
2023-03-24T06:25:17.948Z,59.87
2023-03-24T06:28:22.618Z,58.78
2023-03-24T06:31:29.728Z,58.50
2023-03-24T06:34:34.622Z,59.28
2023-03-24T06:37:39.310Z,59.78
2023-03-24T06:40:43.874Z,60.80
2023-03-24T06:43:48.398Z,61.54
2023-03-24T06:46:52.857Z,61.88
2023-03-24T06:49:57.455Z,62.38
2023-03-24T06:53:02.193Z,65.91
2023-03-24T06:56:07.686Z,68.05
2023-03-24T06:59:12.159Z,67.98
2023-03-24T07:02:17.121Z,67.13
2023-03-24T07:05:22.069Z,66.67
2023-03-24T07:08:37.144Z,66.32
2023-03-24T07:11:43.379Z,65.90
2023-03-24T07:14:47.983Z,65.42
2023-03-24T07:17:52.565Z,64.82
2023-03-24T07:20:57.150Z,65.14
2023-03-24T07:24:02.344Z,64.84
2023-03-24T07:27:06.915Z,64.67
2023-03-24T07:30:12.078Z,64.57
2023-03-24T07:33:16.590Z,65.40
2023-03-24T07:36:21.256Z,65.58
2023-03-24T07:39:25.847Z,65.72
2023-03-24T07:42:30.274Z,64.95
2023-03-24T07:45:35.024Z,64.17
2023-03-24T07:48:40.009Z,64.20
2023-03-24T07:51:44.680Z,63.90
2023-03-24T07:54:49.295Z,62.46
2023-03-24T07:57:53.808Z,61.45
2023-03-24T08:00:58.412Z,61.25
2023-03-24T08:04:03.005Z,61.06
2023-03-24T08:07:08.553Z,60.38
2023-03-24T08:10:14.181Z,60.13
2023-03-24T08:13:18.897Z,58.22
2023-03-24T08:16:23.551Z,56.73
2023-03-24T08:19:28.149Z,56.26
2023-03-24T08:22:32.698Z,56.82
2023-03-24T08:25:37.586Z,57.28
2023-03-24T08:28:42.914Z,57.72
2023-03-24T08:31:47.394Z,58.32
2023-03-24T08:34:52.108Z,58.70
2023-03-24T08:37:56.657Z,59.06
2023-03-24T08:41:02.762Z,59.19
2023-03-24T08:44:07.720Z,58.61
2023-03-24T08:47:13.139Z,59.31
2023-03-24T08:50:18.117Z,59.94
2023-03-24T08:53:22.870Z,59.90
2023-03-24T08:56:27.398Z,59.20
2023-03-24T08:59:31.857Z,59.46
2023-03-24T09:02:36.563Z,60.28
2023-03-24T09:05:54.031Z,59.66
2023-03-24T09:08:58.690Z,59.47
2023-03-24T09:12:03.313Z,59.62
2023-03-24T09:15:09.021Z,59.10
2023-03-24T09:18:13.494Z,59.28
2023-03-24T09:21:18.319Z,58.58
2023-03-24T09:24:22.957Z,58.77
2023-03-24T09:27:27.446Z,58.01
2023-03-24T09:30:33.940Z,57.49
2023-03-24T09:33:39.697Z,56.78
2023-03-24T09:36:44.338Z,56.28
2023-03-24T09:39:49.195Z,56.91
2023-03-24T09:42:56.900Z,56.39
2023-03-24T09:46:03.166Z,55.31
2023-03-24T09:49:07.652Z,54.62
2023-03-24T09:52:15.291Z,55.74
2023-03-24T09:55:22.633Z,55.96
2023-03-24T09:58:29.843Z,56.56
2023-03-24T10:01:35.060Z,56.78
2023-03-24T10:04:39.814Z,56.00
2023-03-24T10:07:48.674Z,54.90
2023-03-24T10:10:59.528Z,55.77
2023-03-24T10:14:11.954Z,55.55
2023-03-24T10:17:21.477Z,55.67
2023-03-24T10:20:33.260Z,54.41
2023-03-24T10:23:39.211Z,54.79
2023-03-24T10:26:46.719Z,53.57
2023-03-24T10:29:54.246Z,53.60
2023-03-24T10:32:58.810Z,54.85
2023-03-24T10:36:07.782Z,54.88
2023-03-24T10:39:20.924Z,55.42
2023-03-24T10:42:32.917Z,53.81
2023-03-24T10:45:38.844Z,53.36
2023-03-24T10:48:47.527Z,54.49
2023-03-24T10:51:52.723Z,53.73
2023-03-24T10:54:58.423Z,54.48
2023-03-24T10:58:03.218Z,54.50
2023-03-24T11:01:11.682Z,52.92
2023-03-24T11:04:19.979Z,54.18
2023-03-24T11:07:25.692Z,53.78
2023-03-24T11:10:30.323Z,53.91
2023-03-24T11:13:35.264Z,53.68
2023-03-24T11:16:44.405Z,53.73
2023-03-24T11:19:55.572Z,53.57
2023-03-24T11:23:01.331Z,52.96
2023-03-24T11:26:08.326Z,52.03
2023-03-24T11:29:14.609Z,52.48
2023-03-24T11:32:21.509Z,51.82
2023-03-24T11:35:39.085Z,52.00
2023-03-24T11:38:59.586Z,51.78
2023-03-24T11:42:15.077Z,51.80
2023-03-24T11:45:24.514Z,52.05
2023-03-24T11:48:31.409Z,51.74
2023-03-24T11:51:37.770Z,50.94
2023-03-24T11:54:42.389Z,50.30
2023-03-24T11:57:53.883Z,51.03
2023-03-24T12:01:02.154Z,50.83
2023-03-24T12:04:23.003Z,50.21
2023-03-24T12:07:44.635Z,50.15
2023-03-24T12:10:57.115Z,50.50
2023-03-24T12:14:03.202Z,51.55
2023-03-24T12:17:11.155Z,51.39
2023-03-24T12:20:20.556Z,50.66
2023-03-24T12:23:28.400Z,50.11
2023-03-24T12:26:33.386Z,48.31
2023-03-24T12:29:48.459Z,48.99
2023-03-24T12:33:01.391Z,48.62
2023-03-24T12:36:13.792Z,48.75
2023-03-24T12:39:23.550Z,48.20
2023-03-24T12:42:32.795Z,48.36
2023-03-24T12:45:45.754Z,48.05
2023-03-24T12:49:03.004Z,46.94
2023-03-24T12:52:16.973Z,47.39
2023-03-24T12:55:25.521Z,47.59
2023-03-24T12:58:34.740Z,46.47
2023-03-24T13:01:40.786Z,47.04
2023-03-24T13:04:47.365Z,46.74
2023-03-24T13:07:54.782Z,46.91
2023-03-24T13:11:02.937Z,46.82
2023-03-24T13:14:12.461Z,46.92
2023-03-24T13:17:20.624Z,47.04
2023-03-24T13:20:27.636Z,47.00
2023-03-24T13:23:40.323Z,47.00
2023-03-24T13:26:50.280Z,46.21
2023-03-24T13:30:16.937Z,45.53
2023-03-24T13:33:23.298Z,46.43
2023-03-24T13:36:36.253Z,45.63
2023-03-24T13:39:40.947Z,45.95
2023-03-24T13:42:47.145Z,45.97
2023-03-24T13:45:53.198Z,46.15
2023-03-24T13:48:58.847Z,46.03
2023-03-24T13:52:06.422Z,45.80
2023-03-24T13:55:14.116Z,45.47
2023-03-24T13:58:20.696Z,45.27
2023-03-24T14:01:35.080Z,46.82
2023-03-24T14:04:49.574Z,46.19
2023-03-24T14:08:10.915Z,46.18
2023-03-24T14:11:32.287Z,46.87
2023-03-24T14:14:37.181Z,46.70
2023-03-24T14:17:44.244Z,46.04
2023-03-24T14:21:01.984Z,46.43
2023-03-24T14:24:17.415Z,45.70
2023-03-24T14:27:31.933Z,46.22
2023-03-24T14:30:40.876Z,45.82
2023-03-24T14:33:46.663Z,45.66
2023-03-24T14:37:00.262Z,45.86
2023-03-24T14:40:06.699Z,46.29
2023-03-24T14:43:24.231Z,46.05
2023-03-24T14:46:50.367Z,46.28
2023-03-24T14:49:55.743Z,46.54
2023-03-24T14:53:02.292Z,46.49
2023-03-24T14:56:07.988Z,46.69
2023-03-24T14:59:19.412Z,46.83
2023-03-24T15:02:33.160Z,46.72
2023-03-24T15:05:38.988Z,46.75
2023-03-24T15:08:47.009Z,45.98
2023-03-24T15:11:52.132Z,46.10
2023-03-24T15:14:57.525Z,46.20
2023-03-24T15:18:04.090Z,46.34
2023-03-24T15:21:17.094Z,46.30
2023-03-24T15:24:30.167Z,46.96
2023-03-24T15:27:34.602Z,46.45
2023-03-24T15:30:38.901Z,45.14
2023-03-24T15:33:44.086Z,44.27
2023-03-24T15:36:54.199Z,45.30
2023-03-24T15:40:05.578Z,46.37
2023-03-24T15:43:22.031Z,45.97
2023-03-24T15:46:28.285Z,45.60
2023-03-24T15:49:34.015Z,45.17
2023-03-24T15:52:39.137Z,45.20
2023-03-24T15:55:44.407Z,46.22
2023-03-24T15:58:50.126Z,46.07
2023-03-24T16:01:54.632Z,46.30
2023-03-24T16:05:10.854Z,46.21
2023-03-24T16:08:27.522Z,45.91
2023-03-24T16:11:32.026Z,46.13
2023-03-24T16:14:36.408Z,46.13
2023-03-24T16:17:41.034Z,45.88
2023-03-24T16:20:45.398Z,45.97
2023-03-24T16:23:50.495Z,45.71
2023-03-24T16:26:54.983Z,45.56
2023-03-24T16:29:59.382Z,45.57
2023-03-24T16:33:03.852Z,45.33
2023-03-24T16:36:11.608Z,45.49
2023-03-24T16:39:17.176Z,45.61
2023-03-24T16:42:21.730Z,45.61
2023-03-24T16:45:26.112Z,45.65
2023-03-24T16:48:30.515Z,45.77
2023-03-24T16:51:34.970Z,45.85
2023-03-24T16:54:39.216Z,45.91
2023-03-24T16:57:43.670Z,45.84
2023-03-24T17:00:49.798Z,46.06
2023-03-24T17:03:54.830Z,46.05
2023-03-24T17:06:59.313Z,46.08
2023-03-24T17:10:04.102Z,46.23
2023-03-24T17:13:08.566Z,46.36
2023-03-24T17:16:13.231Z,46.52
2023-03-24T17:19:18.462Z,46.57
2023-03-24T17:22:22.992Z,46.78
2023-03-24T17:25:29.314Z,46.82
2023-03-24T17:28:33.676Z,46.99
2023-03-24T17:31:38.154Z,47.08
2023-03-24T17:34:44.971Z,47.10
2023-03-24T17:37:49.806Z,47.17
2023-03-24T17:41:01.400Z,47.27
2023-03-24T17:44:06.054Z,47.44
2023-03-24T17:47:10.527Z,47.42
2023-03-24T17:50:15.369Z,47.65
2023-03-24T17:53:25.743Z,47.69
2023-03-24T17:56:30.396Z,47.96
2023-03-24T17:59:35.005Z,48.43
2023-03-24T18:02:40.008Z,48.70
2023-03-24T18:05:44.979Z,49.01
2023-03-24T18:08:51.949Z,49.38
2023-03-24T18:11:56.369Z,49.74
2023-03-24T18:15:00.786Z,49.78
2023-03-24T18:18:05.353Z,49.92
2023-03-24T18:21:09.973Z,50.11
2023-03-24T18:24:14.438Z,50.42
2023-03-24T18:27:18.733Z,50.60
2023-03-24T18:30:23.532Z,50.79
2023-03-24T18:33:31.465Z,51.06
2023-03-24T18:36:36.553Z,51.39
2023-03-24T18:39:40.982Z,51.70
2023-03-24T18:42:45.426Z,51.87
2023-03-24T18:45:50.160Z,52.40
2023-03-24T18:48:54.778Z,52.70
2023-03-24T18:51:59.300Z,52.90
2023-03-24T18:55:03.709Z,53.12
2023-03-24T18:58:10.370Z,53.49
2023-03-24T19:01:15.993Z,53.94
2023-03-24T19:04:20.490Z,54.03
2023-03-24T19:07:26.392Z,54.55
2023-03-24T19:10:31.512Z,55.26
2023-03-24T19:13:36.313Z,55.93
2023-03-24T19:16:40.919Z,55.19
2023-03-24T19:19:45.378Z,54.86
2023-03-24T19:22:49.793Z,54.83
2023-03-24T19:25:55.215Z,54.92
2023-03-24T19:28:59.587Z,54.40
2023-03-24T19:32:03.855Z,54.34
2023-03-24T19:35:09.475Z,54.53
2023-03-24T19:38:14.310Z,54.75
2023-03-24T19:41:18.659Z,55.29
2023-03-24T19:44:23.622Z,56.30
2023-03-24T19:47:28.124Z,55.76
2023-03-24T19:50:32.883Z,56.10
2023-03-24T19:53:37.326Z,56.46
2023-03-24T19:56:42.008Z,56.62
2023-03-24T19:59:46.359Z,56.78
2023-03-24T20:02:51.220Z,56.91
2023-03-24T20:05:55.811Z,56.98
2023-03-24T20:09:00.207Z,57.14
2023-03-24T20:12:05.077Z,57.63
2023-03-24T20:15:11.017Z,57.38
2023-03-24T20:18:15.616Z,57.22
2023-03-24T20:21:22.339Z,57.30
2023-03-24T20:24:26.772Z,57.58
2023-03-24T20:27:31.085Z,57.67
2023-03-24T20:30:35.406Z,57.76
2023-03-24T20:33:40.019Z,58.04
2023-03-24T20:36:44.452Z,58.36
2023-03-24T20:39:48.877Z,58.58
2023-03-24T20:42:53.385Z,58.85
2023-03-24T20:45:57.918Z,58.87
2023-03-24T20:49:02.612Z,58.97
2023-03-24T20:52:07.151Z,58.69
2023-03-24T20:55:12.544Z,58.08
2023-03-24T20:58:16.950Z,57.96
2023-03-24T21:01:22.325Z,58.00
2023-03-24T21:04:26.826Z,57.95
2023-03-24T21:07:31.212Z,58.16
2023-03-24T21:10:38.154Z,58.60
2023-03-24T21:13:42.545Z,58.30
2023-03-24T21:16:47.469Z,59.12
2023-03-24T21:19:54.806Z,58.76
2023-03-24T21:23:03.502Z,58.38
2023-03-24T21:26:08.339Z,58.99
2023-03-24T21:29:13.204Z,58.64
2023-03-24T21:32:17.633Z,58.60
2023-03-24T21:35:22.583Z,58.87
2023-03-24T21:38:27.203Z,58.78
2023-03-24T21:41:31.704Z,58.85
2023-03-24T21:44:36.327Z,58.88
2023-03-24T21:47:40.766Z,58.72
2023-03-24T21:50:45.565Z,58.69
2023-03-24T21:53:49.786Z,59.07
2023-03-24T21:56:54.256Z,59.01
2023-03-24T21:59:59.551Z,59.42
2023-03-24T22:03:04.088Z,59.89
2023-03-24T22:06:12.957Z,60.88
2023-03-24T22:09:19.293Z,60.94
2023-03-24T22:12:23.696Z,60.40
2023-03-24T22:15:28.195Z,60.49
2023-03-24T22:18:34.352Z,60.61
2023-03-24T22:21:39.776Z,60.79
2023-03-24T22:24:44.352Z,60.71
2023-03-24T22:27:52.116Z,61.21
2023-03-24T22:31:02.046Z,60.55
2023-03-24T22:34:06.453Z,60.53
2023-03-24T22:37:10.854Z,60.57
2023-03-24T22:40:15.184Z,60.76
2023-03-24T22:43:19.588Z,60.87
2023-03-24T22:46:24.749Z,61.36
2023-03-24T22:49:29.374Z,61.14
2023-03-24T22:52:33.789Z,61.31
2023-03-24T22:55:39.118Z,61.89
2023-03-24T22:58:43.542Z,64.84
2023-03-24T23:01:53.648Z,66.69
2023-03-24T23:05:07.414Z,66.72
2023-03-24T23:08:11.807Z,65.10
2023-03-24T23:11:16.084Z,64.76
2023-03-24T23:14:20.318Z,63.82
2023-03-24T23:17:25.310Z,63.01
2023-03-24T23:20:29.801Z,62.38
2023-03-24T23:23:34.263Z,62.18
2023-03-24T23:26:38.422Z,61.04
2023-03-24T23:29:42.775Z,61.21
2023-03-24T23:32:48.582Z,60.67
2023-03-24T23:35:56.769Z,59.28
2023-03-24T23:39:01.257Z,58.92
2023-03-24T23:42:05.703Z,58.66
2023-03-24T23:45:14.767Z,59.29
2023-03-24T23:48:19.279Z,60.09
2023-03-24T23:51:23.643Z,60.50
2023-03-24T23:54:27.869Z,60.55
2023-03-24T23:57:33.006Z,61.04
